sensor_id;sensor_type;location;lat;lon;timestamp;pressure;altitude;pressure_sealevel;temperature
66113;BMP280;52893;52.870;5.822;2023-12-20T00:02:26;101054.22;;;6.87
66113;BMP280;52893;52.870;5.822;2023-12-20T00:04:53;101024.66;;;6.66
66113;BMP280;52893;52.870;5.822;2023-12-20T00:07:21;101051.59;;;6.82
66113;BMP280;52893;52.870;5.822;2023-12-20T00:09:48;101062.50;;;6.77
66113;BMP280;52893;52.870;5.822;2023-12-20T00:12:17;101054.66;;;6.75
66113;BMP280;52893;52.870;5.822;2023-12-20T00:14:44;100984.63;;;6.34
66113;BMP280;52893;52.870;5.822;2023-12-20T00:17:12;101046.22;;;6.77
66113;BMP280;52893;52.870;5.822;2023-12-20T00:19:40;101045.44;;;6.71
66113;BMP280;52893;52.870;5.822;2023-12-20T00:22:07;101048.44;;;6.69
66113;BMP280;52893;52.870;5.822;2023-12-20T00:24:34;100984.88;;;6.38
66113;BMP280;52893;52.870;5.822;2023-12-20T00:27:01;101037.03;;;6.72
66113;BMP280;52893;52.870;5.822;2023-12-20T00:29:30;101025.97;;;6.69
66113;BMP280;52893;52.870;5.822;2023-12-20T00:31:58;101025.19;;;6.68
66113;BMP280;52893;52.870;5.822;2023-12-20T00:34:25;101024.28;;;6.73
66113;BMP280;52893;52.870;5.822;2023-12-20T00:36:52;101010.28;;;6.66
66113;BMP280;52893;52.870;5.822;2023-12-20T00:39:21;101020.47;;;6.74
66113;BMP280;52893;52.870;5.822;2023-12-20T00:41:48;101021.56;;;6.73
66113;BMP280;52893;52.870;5.822;2023-12-20T00:44:17;101030.47;;;6.79
66113;BMP280;52893;52.870;5.822;2023-12-20T00:46:46;101019.13;;;6.71
66113;BMP280;52893;52.870;5.822;2023-12-20T00:49:14;101029.88;;;6.82
66113;BMP280;52893;52.870;5.822;2023-12-20T00:51:41;101024.44;;;6.82
66113;BMP280;52893;52.870;5.822;2023-12-20T00:54:08;101024.44;;;6.82
66113;BMP280;52893;52.870;5.822;2023-12-20T00:56:36;101027.97;;;6.82
66113;BMP280;52893;52.870;5.822;2023-12-20T00:59:03;101018.16;;;6.86
66113;BMP280;52893;52.870;5.822;2023-12-20T01:01:31;100939.81;;;6.42
66113;BMP280;52893;52.870;5.822;2023-12-20T01:04:00;101016.16;;;6.92
66113;BMP280;52893;52.870;5.822;2023-12-20T01:06:28;101000.78;;;6.87
66113;BMP280;52893;52.870;5.822;2023-12-20T01:08:55;101019.53;;;7.02
66113;BMP280;52893;52.870;5.822;2023-12-20T01:11:22;101024.44;;;7.00
66113;BMP280;52893;52.870;5.822;2023-12-20T01:13:50;101028.53;;;6.98
66113;BMP280;52893;52.870;5.822;2023-12-20T01:16:17;101028.53;;;6.98
66113;BMP280;52893;52.870;5.822;2023-12-20T01:18:44;101028.34;;;6.94
66113;BMP280;52893;52.870;5.822;2023-12-20T01:21:13;101029.72;;;6.92
66113;BMP280;52893;52.870;5.822;2023-12-20T01:23:41;101027.31;;;6.90
66113;BMP280;52893;52.870;5.822;2023-12-20T01:26:08;101008.28;;;6.71
66113;BMP280;52893;52.870;5.822;2023-12-20T01:28:36;101029.81;;;6.87
66113;BMP280;52893;52.870;5.822;2023-12-20T01:31:03;101029.88;;;6.82
66113;BMP280;52893;52.870;5.822;2023-12-20T01:33:31;101019.28;;;6.61
66113;BMP280;52893;52.870;5.822;2023-12-20T01:35:58;101030.91;;;6.67
66113;BMP280;52893;52.870;5.822;2023-12-20T01:38:27;101019.81;;;6.63
66113;BMP280;52893;52.870;5.822;2023-12-20T01:40:54;101009.69;;;6.69
66113;BMP280;52893;52.870;5.822;2023-12-20T01:43:22;100999.28;;;6.76
66113;BMP280;52893;52.870;5.822;2023-12-20T01:45:49;101010.53;;;6.88
66113;BMP280;52893;52.870;5.822;2023-12-20T01:48:17;101012.84;;;6.95
66113;BMP280;52893;52.870;5.822;2023-12-20T01:50:46;101013.31;;;7.02
66113;BMP280;52893;52.870;5.822;2023-12-20T01:53:14;101017.88;;;7.06
66113;BMP280;52893;52.870;5.822;2023-12-20T01:55:44;101015.06;;;7.11
66113;BMP280;52893;52.870;5.822;2023-12-20T01:58:12;101008.28;;;7.09
66113;BMP280;52893;52.870;5.822;2023-12-20T02:00:40;100847.41;;;6.20
66113;BMP280;52893;52.870;5.822;2023-12-20T02:03:08;101000.50;;;7.21
66113;BMP280;52893;52.870;5.822;2023-12-20T02:05:35;101004.28;;;7.25
66113;BMP280;52893;52.870;5.822;2023-12-20T02:08:03;100997.72;;;7.26
66113;BMP280;52893;52.870;5.822;2023-12-20T02:10:31;100930.13;;;6.73
66113;BMP280;52893;52.870;5.822;2023-12-20T02:13:00;101004.19;;;7.30
66113;BMP280;52893;52.870;5.822;2023-12-20T02:15:28;100996.34;;;7.29
66113;BMP280;52893;52.870;5.822;2023-12-20T02:17:54;100921.03;;;6.83
66113;BMP280;52893;52.870;5.822;2023-12-20T02:20:22;100993.63;;;7.29
66113;BMP280;52893;52.870;5.822;2023-12-20T02:22:51;100995.44;;;7.33
66113;BMP280;52893;52.870;5.822;2023-12-20T02:25:18;101004.59;;;7.37
66113;BMP280;52893;52.870;5.822;2023-12-20T02:27:45;101008.03;;;7.43
66113;BMP280;52893;52.870;5.822;2023-12-20T02:30:13;100991.91;;;7.33
66113;BMP280;52893;52.870;5.822;2023-12-20T02:32:40;100998.06;;;7.38
66113;BMP280;52893;52.870;5.822;2023-12-20T02:35:07;101003.41;;;7.43
66113;BMP280;52893;52.870;5.822;2023-12-20T02:37:35;100945.28;;;7.12
66113;BMP280;52893;52.870;5.822;2023-12-20T02:40:05;100985.59;;;7.37
66113;BMP280;52893;52.870;5.822;2023-12-20T02:42:33;100990.28;;;7.50
66113;BMP280;52893;52.870;5.822;2023-12-20T02:45:00;100992.41;;;7.53
66113;BMP280;52893;52.870;5.822;2023-12-20T02:47:28;100982.06;;;7.37
66113;BMP280;52893;52.870;5.822;2023-12-20T02:49:55;100956.78;;;7.23
66113;BMP280;52893;52.870;5.822;2023-12-20T02:52:23;100999.59;;;7.44
66113;BMP280;52893;52.870;5.822;2023-12-20T02:54:51;101002.22;;;7.49
66113;BMP280;52893;52.870;5.822;2023-12-20T02:57:20;100984.59;;;7.47
66113;BMP280;52893;52.870;5.822;2023-12-20T02:59:47;100981.88;;;7.47
66113;BMP280;52893;52.870;5.822;2023-12-20T03:02:15;100988.34;;;7.51
66113;BMP280;52893;52.870;5.822;2023-12-20T03:04:42;100986.34;;;7.56
66113;BMP280;52893;52.870;5.822;2023-12-20T03:07:09;100984.31;;;7.48
66113;BMP280;52893;52.870;5.822;2023-12-20T03:09:38;100993.50;;;7.52
66113;BMP280;52893;52.870;5.822;2023-12-20T03:12:05;101001.66;;;7.52
66113;BMP280;52893;52.870;5.822;2023-12-20T03:14:34;100997.97;;;7.43
66113;BMP280;52893;52.870;5.822;2023-12-20T03:17:01;100997.16;;;7.43
66113;BMP280;52893;52.870;5.822;2023-12-20T03:19:29;100987.72;;;7.40
66113;BMP280;52893;52.870;5.822;2023-12-20T03:21:56;100987.50;;;7.37
66113;BMP280;52893;52.870;5.822;2023-12-20T03:24:26;100950.19;;;7.10
66113;BMP280;52893;52.870;5.822;2023-12-20T03:26:54;100971.00;;;7.33
66113;BMP280;52893;52.870;5.822;2023-12-20T03:29:21;100949.44;;;7.23
66113;BMP280;52893;52.870;5.822;2023-12-20T03:31:50;100978.84;;;7.35
66113;BMP280;52893;52.870;5.822;2023-12-20T03:34:17;100963.53;;;7.25
66113;BMP280;52893;52.870;5.822;2023-12-20T03:36:45;100969.91;;;7.34
66113;BMP280;52893;52.870;5.822;2023-12-20T03:39:13;100979.13;;;7.33
66113;BMP280;52893;52.870;5.822;2023-12-20T03:41:41;100965.13;;;7.26
66113;BMP280;52893;52.870;5.822;2023-12-20T03:44:08;100973.84;;;7.42
66113;BMP280;52893;52.870;5.822;2023-12-20T03:46:35;100978.97;;;7.43
66113;BMP280;52893;52.870;5.822;2023-12-20T03:49:04;100980.50;;;7.49
66113;BMP280;52893;52.870;5.822;2023-12-20T03:51:31;100985.34;;;7.52
66113;BMP280;52893;52.870;5.822;2023-12-20T03:53:59;100972.47;;;7.58
66113;BMP280;52893;52.870;5.822;2023-12-20T03:56:26;100966.66;;;7.65
66113;BMP280;52893;52.870;5.822;2023-12-20T03:58:53;100956.91;;;7.64
66113;BMP280;52893;52.870;5.822;2023-12-20T04:01:21;100955.69;;;7.70
66113;BMP280;52893;52.870;5.822;2023-12-20T04:03:48;100921.78;;;7.53
66113;BMP280;52893;52.870;5.822;2023-12-20T04:06:18;100929.00;;;7.58
66113;BMP280;52893;52.870;5.822;2023-12-20T04:08:45;100931.44;;;7.73
66113;BMP280;52893;52.870;5.822;2023-12-20T04:11:13;100929.72;;;7.77
66113;BMP280;52893;52.870;5.822;2023-12-20T04:13:40;100931.03;;;7.80
66113;BMP280;52893;52.870;5.822;2023-12-20T04:16:07;100936.38;;;7.85
66113;BMP280;52893;52.870;5.822;2023-12-20T04:18:35;100920.97;;;7.80
66113;BMP280;52893;52.870;5.822;2023-12-20T04:21:03;100918.56;;;7.79
66113;BMP280;52893;52.870;5.822;2023-12-20T04:23:31;100931.84;;;7.80
66113;BMP280;52893;52.870;5.822;2023-12-20T04:25:59;100919.56;;;7.69
66113;BMP280;52893;52.870;5.822;2023-12-20T04:28:27;100940.50;;;7.82
66113;BMP280;52893;52.870;5.822;2023-12-20T04:30:56;100935.56;;;7.84
66113;BMP280;52893;52.870;5.822;2023-12-20T04:33:23;100931.94;;;7.89
66113;BMP280;52893;52.870;5.822;2023-12-20T04:35:51;100918.97;;;7.86
66113;BMP280;52893;52.870;5.822;2023-12-20T04:38:18;100932.13;;;7.92
66113;BMP280;52893;52.870;5.822;2023-12-20T04:40:47;100926.50;;;7.89
66113;BMP280;52893;52.870;5.822;2023-12-20T04:43:14;100939.78;;;8.04
66113;BMP280;52893;52.870;5.822;2023-12-20T04:45:42;100951.47;;;8.04
66113;BMP280;52893;52.870;5.822;2023-12-20T04:48:09;100947.53;;;8.11
66113;BMP280;52893;52.870;5.822;2023-12-20T04:50:36;100954.78;;;8.15
66113;BMP280;52893;52.870;5.822;2023-12-20T04:53:04;100961.84;;;8.16
66113;BMP280;52893;52.870;5.822;2023-12-20T04:55:31;100964.84;;;8.15
66113;BMP280;52893;52.870;5.822;2023-12-20T04:58:00;100947.13;;;8.03
66113;BMP280;52893;52.870;5.822;2023-12-20T05:00:27;100951.69;;;8.08
66113;BMP280;52893;52.870;5.822;2023-12-20T05:02:56;100963.94;;;8.19
66113;BMP280;52893;52.870;5.822;2023-12-20T05:05:23;100962.81;;;8.20
66113;BMP280;52893;52.870;5.822;2023-12-20T05:07:51;100958.97;;;8.21
66113;BMP280;52893;52.870;5.822;2023-12-20T05:10:19;100957.00;;;8.27
66113;BMP280;52893;52.870;5.822;2023-12-20T05:12:46;100949.22;;;8.20
66113;BMP280;52893;52.870;5.822;2023-12-20T05:15:15;100966.63;;;8.33
66113;BMP280;52893;52.870;5.822;2023-12-20T05:17:42;100935.44;;;8.03
66113;BMP280;52893;52.870;5.822;2023-12-20T05:20:09;100971.91;;;8.29
66113;BMP280;52893;52.870;5.822;2023-12-20T05:22:37;100957.16;;;8.30
66113;BMP280;52893;52.870;5.822;2023-12-20T05:25:05;100925.31;;;8.09
66113;BMP280;52893;52.870;5.822;2023-12-20T05:27:33;100946.50;;;8.20
66113;BMP280;52893;52.870;5.822;2023-12-20T05:30:00;100956.69;;;8.28
66113;BMP280;52893;52.870;5.822;2023-12-20T05:32:29;100955.59;;;8.29
66113;BMP280;52893;52.870;5.822;2023-12-20T05:34:57;100948.03;;;8.26
66113;BMP280;52893;52.870;5.822;2023-12-20T05:37:24;100947.59;;;8.33
66113;BMP280;52893;52.870;5.822;2023-12-20T05:39:52;100929.66;;;8.32
66113;BMP280;52893;52.870;5.822;2023-12-20T05:42:19;100934.81;;;8.33
66113;BMP280;52893;52.870;5.822;2023-12-20T05:44:47;100935.63;;;8.34
66113;BMP280;52893;52.870;5.822;2023-12-20T05:47:14;100934.22;;;8.36
66113;BMP280;52893;52.870;5.822;2023-12-20T05:49:43;100921.03;;;8.30
66113;BMP280;52893;52.870;5.822;2023-12-20T05:52:11;100938.41;;;8.42
66113;BMP280;52893;52.870;5.822;2023-12-20T05:54:38;100943.03;;;8.42
66113;BMP280;52893;52.870;5.822;2023-12-20T05:57:06;100937.00;;;8.45
66113;BMP280;52893;52.870;5.822;2023-12-20T05:59:33;100927.69;;;8.37
66113;BMP280;52893;52.870;5.822;2023-12-20T06:02:00;100930.47;;;8.46
66113;BMP280;52893;52.870;5.822;2023-12-20T06:04:28;100931.47;;;8.50
66113;BMP280;52893;52.870;5.822;2023-12-20T06:06:57;100943.03;;;8.56
66113;BMP280;52893;52.870;5.822;2023-12-20T06:09:26;100937.38;;;8.52
66113;BMP280;52893;52.870;5.822;2023-12-20T06:11:54;100883.44;;;8.32
66113;BMP280;52893;52.870;5.822;2023-12-20T06:14:21;100900.72;;;8.50
66113;BMP280;52893;52.870;5.822;2023-12-20T06:16:49;100908.25;;;8.53
66113;BMP280;52893;52.870;5.822;2023-12-20T06:19:16;100910.16;;;8.52
66113;BMP280;52893;52.870;5.822;2023-12-20T06:21:43;100931.41;;;8.64
66113;BMP280;52893;52.870;5.822;2023-12-20T06:24:12;100913.19;;;8.51
66113;BMP280;52893;52.870;5.822;2023-12-20T06:26:40;100931.84;;;8.57
66113;BMP280;52893;52.870;5.822;2023-12-20T06:29:07;100930.41;;;8.60
66113;BMP280;52893;52.870;5.822;2023-12-20T06:31:35;100944.03;;;8.60
66113;BMP280;52893;52.870;5.822;2023-12-20T06:34:02;100940.38;;;8.64
66113;BMP280;52893;52.870;5.822;2023-12-20T06:36:29;100945.00;;;8.64
66113;BMP280;52893;52.870;5.822;2023-12-20T06:38:57;100949.34;;;8.65
66113;BMP280;52893;52.870;5.822;2023-12-20T06:41:26;100944.09;;;8.68
66113;BMP280;52893;52.870;5.822;2023-12-20T06:43:53;100941.38;;;8.68
66113;BMP280;52893;52.870;5.822;2023-12-20T06:46:21;100923.25;;;8.64
66113;BMP280;52893;52.870;5.822;2023-12-20T06:48:49;100926.25;;;8.76
66113;BMP280;52893;52.870;5.822;2023-12-20T06:51:17;100916.94;;;8.77
66113;BMP280;52893;52.870;5.822;2023-12-20T06:53:45;100918.38;;;8.74
66113;BMP280;52893;52.870;5.822;2023-12-20T06:56:13;100907.78;;;8.73
66113;BMP280;52893;52.870;5.822;2023-12-20T06:58:42;100913.09;;;8.78
66113;BMP280;52893;52.870;5.822;2023-12-20T07:01:11;100911.50;;;8.77
66113;BMP280;52893;52.870;5.822;2023-12-20T07:03:40;100912.63;;;8.76
66113;BMP280;52893;52.870;5.822;2023-12-20T07:06:08;100906.06;;;8.77
66113;BMP280;52893;52.870;5.822;2023-12-20T07:08:35;100852.19;;;8.43
66113;BMP280;52893;52.870;5.822;2023-12-20T07:11:03;100901.13;;;8.79
66113;BMP280;52893;52.870;5.822;2023-12-20T07:13:31;100890.94;;;8.71
66113;BMP280;52893;52.870;5.822;2023-12-20T07:16:00;100907.03;;;8.81
66113;BMP280;52893;52.870;5.822;2023-12-20T07:18:27;100898.38;;;8.79
66113;BMP280;52893;52.870;5.822;2023-12-20T07:20:55;100885.97;;;8.64
66113;BMP280;52893;52.870;5.822;2023-12-20T07:23:22;100873.28;;;8.60
66113;BMP280;52893;52.870;5.822;2023-12-20T07:25:49;100908.16;;;8.80
66113;BMP280;52893;52.870;5.822;2023-12-20T07:28:17;100913.63;;;8.80
66113;BMP280;52893;52.870;5.822;2023-12-20T07:30:44;100902.84;;;8.75
66113;BMP280;52893;52.870;5.822;2023-12-20T07:33:13;100908.16;;;8.80
66113;BMP280;52893;52.870;5.822;2023-12-20T07:35:42;100898.28;;;8.84
66113;BMP280;52893;52.870;5.822;2023-12-20T07:38:11;100910.91;;;8.80
66113;BMP280;52893;52.870;5.822;2023-12-20T07:40:39;100873.75;;;8.62
66113;BMP280;52893;52.870;5.822;2023-12-20T07:43:06;100921.97;;;8.83
66113;BMP280;52893;52.870;5.822;2023-12-20T07:45:34;100929.81;;;8.85
66113;BMP280;52893;52.870;5.822;2023-12-20T07:48:02;100927.41;;;8.83
66113;BMP280;52893;52.870;5.822;2023-12-20T07:50:31;100920.56;;;8.86
66113;BMP280;52893;52.870;5.822;2023-12-20T07:52:59;100921.31;;;8.86
66113;BMP280;52893;52.870;5.822;2023-12-20T07:55:27;100929.66;;;8.90
66113;BMP280;52893;52.870;5.822;2023-12-20T07:57:54;100928.25;;;8.93
66113;BMP280;52893;52.870;5.822;2023-12-20T08:00:21;100926.19;;;8.89
66113;BMP280;52893;52.870;5.822;2023-12-20T08:02:49;100933.03;;;8.87
66113;BMP280;52893;52.870;5.822;2023-12-20T08:05:17;100941.06;;;8.92
66113;BMP280;52893;52.870;5.822;2023-12-20T08:07:45;100935.75;;;8.87
66113;BMP280;52893;52.870;5.822;2023-12-20T08:10:13;100938.47;;;8.87
66113;BMP280;52893;52.870;5.822;2023-12-20T08:12:41;100907.09;;;8.67
66113;BMP280;52893;52.870;5.822;2023-12-20T08:15:09;100938.97;;;8.89
66113;BMP280;52893;52.870;5.822;2023-12-20T08:17:36;100935.56;;;8.83
66113;BMP280;52893;52.870;5.822;2023-12-20T08:20:04;100926.41;;;8.79
66113;BMP280;52893;52.870;5.822;2023-12-20T08:22:32;100912.13;;;8.74
66113;BMP280;52893;52.870;5.822;2023-12-20T08:25:01;100914.91;;;8.82
66113;BMP280;52893;52.870;5.822;2023-12-20T08:27:28;100915.53;;;8.79
66113;BMP280;52893;52.870;5.822;2023-12-20T08:29:57;100915.03;;;8.77
66113;BMP280;52893;52.870;5.822;2023-12-20T08:32:25;100892.22;;;8.65
66113;BMP280;52893;52.870;5.822;2023-12-20T08:34:53;100903.97;;;8.74
66113;BMP280;52893;52.870;5.822;2023-12-20T08:37:20;100916.34;;;8.80
66113;BMP280;52893;52.870;5.822;2023-12-20T08:39:50;100920.56;;;8.86
66113;BMP280;52893;52.870;5.822;2023-12-20T08:42:19;100925.38;;;8.89
66113;BMP280;52893;52.870;5.822;2023-12-20T08:44:47;100896.09;;;8.72
66113;BMP280;52893;52.870;5.822;2023-12-20T08:47:14;100938.03;;;8.94
66113;BMP280;52893;52.870;5.822;2023-12-20T08:49:42;100934.16;;;8.86
66113;BMP280;52893;52.870;5.822;2023-12-20T08:52:09;100925.53;;;8.93
66113;BMP280;52893;52.870;5.822;2023-12-20T08:54:36;100931.00;;;8.93
66113;BMP280;52893;52.870;5.822;2023-12-20T08:57:04;100934.94;;;8.86
66113;BMP280;52893;52.870;5.822;2023-12-20T08:59:34;100938.97;;;8.89
66113;BMP280;52893;52.870;5.822;2023-12-20T09:02:01;100931.44;;;8.86
66113;BMP280;52893;52.870;5.822;2023-12-20T09:04:29;100936.72;;;8.91
66113;BMP280;52893;52.870;5.822;2023-12-20T09:06:59;100926.47;;;8.88
66113;BMP280;52893;52.870;5.822;2023-12-20T09:09:27;100933.75;;;9.01
66113;BMP280;52893;52.870;5.822;2023-12-20T09:11:54;100938.91;;;9.03
66113;BMP280;52893;52.870;5.822;2023-12-20T09:14:23;100922.63;;;9.11
66113;BMP280;52893;52.870;5.822;2023-12-20T09:16:52;100930.66;;;9.16
66113;BMP280;52893;52.870;5.822;2023-12-20T09:19:21;100940.19;;;9.27
66113;BMP280;52893;52.870;5.822;2023-12-20T09:21:49;100929.16;;;9.32
66113;BMP280;52893;52.870;5.822;2023-12-20T09:24:16;100937.63;;;9.31
66113;BMP280;52893;52.870;5.822;2023-12-20T09:26:44;100926.75;;;9.31
66113;BMP280;52893;52.870;5.822;2023-12-20T09:29:11;100939.69;;;9.25
66113;BMP280;52893;52.870;5.822;2023-12-20T09:31:41;100940.19;;;9.27
66113;BMP280;52893;52.870;5.822;2023-12-20T09:34:11;100952.16;;;9.18
66113;BMP280;52893;52.870;5.822;2023-12-20T09:36:38;100995.22;;;8.94
66113;BMP280;52893;52.870;5.822;2023-12-20T09:39:13;100993.47;;;8.62
66113;BMP280;52893;52.870;5.822;2023-12-20T09:41:43;101005.53;;;8.33
66113;BMP280;52893;52.870;5.822;2023-12-20T09:44:14;100994.38;;;8.08
66113;BMP280;52893;52.870;5.822;2023-12-20T09:46:45;100988.19;;;7.88
66113;BMP280;52893;52.870;5.822;2023-12-20T09:49:14;100974.69;;;7.70
66113;BMP280;52893;52.870;5.822;2023-12-20T09:51:46;100972.06;;;7.65
66113;BMP280;52893;52.870;5.822;2023-12-20T09:54:15;100968.13;;;7.57
66113;BMP280;52893;52.870;5.822;2023-12-20T09:56:44;100963.09;;;7.50
66113;BMP280;52893;52.870;5.822;2023-12-20T09:59:12;100932.56;;;7.26
66113;BMP280;52893;52.870;5.822;2023-12-20T10:01:40;100953.53;;;7.39
66113;BMP280;52893;52.870;5.822;2023-12-20T10:04:09;100973.41;;;7.53
66113;BMP280;52893;52.870;5.822;2023-12-20T10:06:40;100985.97;;;7.63
66113;BMP280;52893;52.870;5.822;2023-12-20T10:09:09;100967.78;;;7.45
66113;BMP280;52893;52.870;5.822;2023-12-20T10:11:37;100990.91;;;7.61
66113;BMP280;52893;52.870;5.822;2023-12-20T10:14:05;100989.81;;;7.62
66113;BMP280;52893;52.870;5.822;2023-12-20T10:16:33;100986.78;;;7.64
66113;BMP280;52893;52.870;5.822;2023-12-20T10:19:01;100976.50;;;7.60
66113;BMP280;52893;52.870;5.822;2023-12-20T10:21:29;100877.72;;;7.10
66113;BMP280;52893;52.870;5.822;2023-12-20T10:23:58;100967.66;;;7.69
66113;BMP280;52893;52.870;5.822;2023-12-20T10:26:26;100977.94;;;7.72
66113;BMP280;52893;52.870;5.822;2023-12-20T10:28:55;100978.44;;;7.74
66113;BMP280;52893;52.870;5.822;2023-12-20T10:31:27;100919.94;;;7.35
66113;BMP280;52893;52.870;5.822;2023-12-20T10:33:56;100969.16;;;7.75
66113;BMP280;52893;52.870;5.822;2023-12-20T10:36:25;100963.94;;;7.78
66113;BMP280;52893;52.870;5.822;2023-12-20T10:38:54;100955.19;;;7.81
66113;BMP280;52893;52.870;5.822;2023-12-20T10:41:27;100953.59;;;7.80
66113;BMP280;52893;52.870;5.822;2023-12-20T10:44:00;100942.09;;;7.70
66113;BMP280;52893;52.870;5.822;2023-12-20T10:46:27;100947.34;;;7.80
66113;BMP280;52893;52.870;5.822;2023-12-20T10:48:56;100946.63;;;7.74
66113;BMP280;52893;52.870;5.822;2023-12-20T10:51:24;100926.56;;;7.56
66113;BMP280;52893;52.870;5.822;2023-12-20T10:53:55;100947.91;;;7.77
66113;BMP280;52893;52.870;5.822;2023-12-20T10:56:23;100937.84;;;7.77
66113;BMP280;52893;52.870;5.822;2023-12-20T10:58:53;100936.47;;;7.80
66113;BMP280;52893;52.870;5.822;2023-12-20T11:01:21;100936.66;;;7.83
66113;BMP280;52893;52.870;5.822;2023-12-20T11:03:51;100935.75;;;7.88
66113;BMP280;52893;52.870;5.822;2023-12-20T11:06:27;100897.00;;;7.69
66113;BMP280;52893;52.870;5.822;2023-12-20T11:09:01;100935.16;;;7.91
66113;BMP280;52893;52.870;5.822;2023-12-20T11:11:38;100932.34;;;7.96
66113;BMP280;52893;52.870;5.822;2023-12-20T11:14:14;100931.66;;;7.90
66113;BMP280;52893;52.870;5.822;2023-12-20T11:16:43;100932.44;;;7.91
66113;BMP280;52893;52.870;5.822;2023-12-20T11:19:11;100902.25;;;7.79
66113;BMP280;52893;52.870;5.822;2023-12-20T11:21:40;100857.19;;;7.50
66113;BMP280;52893;52.870;5.822;2023-12-20T11:24:07;100888.75;;;7.74
66113;BMP280;52893;52.870;5.822;2023-12-20T11:26:35;100874.09;;;7.61
66113;BMP280;52893;52.870;5.822;2023-12-20T11:29:35;100858.50;;;7.53
66113;BMP280;52893;52.870;5.822;2023-12-20T11:32:04;100872.69;;;7.64
66113;BMP280;52893;52.870;5.822;2023-12-20T11:34:53;100857.06;;;7.55
66113;BMP280;52893;52.870;5.822;2023-12-20T11:37:21;100872.97;;;7.62
66113;BMP280;52893;52.870;5.822;2023-12-20T11:39:54;100877.59;;;7.62
66113;BMP280;52893;52.870;5.822;2023-12-20T11:42:22;100862.47;;;7.55
66113;BMP280;52893;52.870;5.822;2023-12-20T11:44:51;100868.66;;;7.61
66113;BMP280;52893;52.870;5.822;2023-12-20T11:47:19;100866.22;;;7.59
66113;BMP280;52893;52.870;5.822;2023-12-20T11:49:47;100880.91;;;7.58
66113;BMP280;52893;52.870;5.822;2023-12-20T11:52:17;100883.13;;;7.56
66113;BMP280;52893;52.870;5.822;2023-12-20T11:54:44;100883.25;;;7.51
66113;BMP280;52893;52.870;5.822;2023-12-20T11:57:12;100870.19;;;7.53
66113;BMP280;52893;52.870;5.822;2023-12-20T11:59:40;100864.38;;;7.55
66113;BMP280;52893;52.870;5.822;2023-12-20T12:02:11;100846.84;;;7.52
66113;BMP280;52893;52.870;5.822;2023-12-20T12:04:41;100853.38;;;7.51
66113;BMP280;52893;52.870;5.822;2023-12-20T12:07:08;100850.34;;;7.53
66113;BMP280;52893;52.870;5.822;2023-12-20T12:09:36;100853.66;;;7.50
66113;BMP280;52893;52.870;5.822;2023-12-20T12:12:04;100806.56;;;7.13
66113;BMP280;52893;52.870;5.822;2023-12-20T12:14:32;100861.00;;;7.49
66113;BMP280;52893;52.870;5.822;2023-12-20T12:17:01;100868.63;;;7.47
66113;BMP280;52893;52.870;5.822;2023-12-20T12:19:30;100839.38;;;7.44
66113;BMP280;52893;52.870;5.822;2023-12-20T12:22:05;100747.53;;;6.78
66113;BMP280;52893;52.870;5.822;2023-12-20T12:24:35;100828.91;;;7.24
66113;BMP280;52893;52.870;5.822;2023-12-20T12:27:05;100829.50;;;7.35
66113;BMP280;52893;52.870;5.822;2023-12-20T12:29:33;100790.00;;;7.15
66113;BMP280;52893;52.870;5.822;2023-12-20T12:32:00;100808.88;;;7.34
66113;BMP280;52893;52.870;5.822;2023-12-20T12:34:29;100812.50;;;7.29
66113;BMP280;52893;52.870;5.822;2023-12-20T12:36:58;100803.47;;;7.34
66113;BMP280;52893;52.870;5.822;2023-12-20T12:39:25;100796.22;;;7.29
66113;BMP280;52893;52.870;5.822;2023-12-20T12:41:53;100801.97;;;7.41
66113;BMP280;52893;52.870;5.822;2023-12-20T12:44:20;100793.97;;;7.45
66113;BMP280;52893;52.870;5.822;2023-12-20T12:46:49;100765.25;;;7.30
66113;BMP280;52893;52.870;5.822;2023-12-20T12:49:17;100787.97;;;7.48
66113;BMP280;52893;52.870;5.822;2023-12-20T12:51:46;100790.25;;;7.54
66113;BMP280;52893;52.870;5.822;2023-12-20T12:54:15;100771.06;;;7.51
66113;BMP280;52893;52.870;5.822;2023-12-20T12:56:44;100790.38;;;7.63
66113;BMP280;52893;52.870;5.822;2023-12-20T12:59:13;100777.91;;;7.62
66113;BMP280;52893;52.870;5.822;2023-12-20T13:01:40;100780.00;;;7.65
66113;BMP280;52893;52.870;5.822;2023-12-20T13:04:08;100771.22;;;7.68
66113;BMP280;52893;52.870;5.822;2023-12-20T13:06:36;100773.66;;;7.70
66113;BMP280;52893;52.870;5.822;2023-12-20T13:09:06;100735.03;;;7.59
66113;BMP280;52893;52.870;5.822;2023-12-20T13:11:35;100769.09;;;7.79
66113;BMP280;52893;52.870;5.822;2023-12-20T13:14:02;100753.31;;;7.81
66113;BMP280;52893;52.870;5.822;2023-12-20T13:16:30;100757.00;;;7.85
66113;BMP280;52893;52.870;5.822;2023-12-20T13:18:58;100759.09;;;7.88
66113;BMP280;52893;52.870;5.822;2023-12-20T13:21:26;100750.03;;;7.92
66113;BMP280;52893;52.870;5.822;2023-12-20T13:23:53;100742.91;;;7.96
66113;BMP280;52893;52.870;5.822;2023-12-20T13:26:22;100720.53;;;7.99
66113;BMP280;52893;52.870;5.822;2023-12-20T13:28:49;100699.53;;;7.91
66113;BMP280;52893;52.870;5.822;2023-12-20T13:31:17;100713.56;;;8.07
66113;BMP280;52893;52.870;5.822;2023-12-20T13:33:44;100692.63;;;8.08
66113;BMP280;52893;52.870;5.822;2023-12-20T13:36:12;100681.38;;;8.00
66113;BMP280;52893;52.870;5.822;2023-12-20T13:38:39;100653.50;;;7.95
66113;BMP280;52893;52.870;5.822;2023-12-20T13:41:07;100678.41;;;8.11
66113;BMP280;52893;52.870;5.822;2023-12-20T13:43:36;100685.63;;;8.15
66113;BMP280;52893;52.870;5.822;2023-12-20T13:46:05;100702.78;;;8.24
66113;BMP280;52893;52.870;5.822;2023-12-20T13:48:32;100706.00;;;8.26
66113;BMP280;52893;52.870;5.822;2023-12-20T13:50:59;100704.91;;;8.27
66113;BMP280;52893;52.870;5.822;2023-12-20T13:53:29;100697.69;;;8.31
66113;BMP280;52893;52.870;5.822;2023-12-20T13:55:57;100689.25;;;8.33
66113;BMP280;52893;52.870;5.822;2023-12-20T13:58:26;100697.13;;;8.43
66113;BMP280;52893;52.870;5.822;2023-12-20T14:00:54;100662.00;;;8.24
66113;BMP280;52893;52.870;5.822;2023-12-20T14:03:22;100690.28;;;8.45
66113;BMP280;52893;52.870;5.822;2023-12-20T14:05:49;100718.66;;;8.62
66113;BMP280;52893;52.870;5.822;2023-12-20T14:08:17;100711.78;;;8.56
66113;BMP280;52893;52.870;5.822;2023-12-20T14:10:44;100720.78;;;8.65
66113;BMP280;52893;52.870;5.822;2023-12-20T14:13:12;100709.50;;;8.49
66113;BMP280;52893;52.870;5.822;2023-12-20T14:15:39;100745.28;;;8.65